Time;durP1;ratioP1;P1;durP2;ratioP2;P2;SDS_P1;SDS_P2;PMS_P1;PMS_P2;Temp;Humidity;BMP_temperature;BMP_pressure;BME280_temperature;BME280_humidity;BME280_pressure;Samples;Min_cycle;Max_cycle;Signal;HPM_P1;HPM_P2
2023/02/22 07:35:19;;;;;;;;;17.00;15.25;;;;;17.75;42.99;100978.16;5100250;27;45933;-71
2023/02/22 07:37:44;;;;;;;;;18.25;14.50;;;;;18.32;43.57;100962.91;5106012;27;45583;-72
2023/02/22 07:40:11;;;;;;;;;16.25;14.50;;;;;19.14;44.04;100953.31;5111862;27;45528;-72
2023/02/22 07:42:56;;;;;;;;;17.25;14.25;;;;;20.33;44.10;100976.06;5111919;27;45687;-71
2023/02/22 07:45:23;;;;;;;;;17.00;16.25;;;;;21.08;43.83;100965.63;5106030;27;46215;-72
2023/02/22 07:47:48;;;;;;;;;21.00;19.50;;;;;21.85;43.13;100981.63;5109599;27;46651;-72
2023/02/22 07:50:15;;;;;;;;;15.50;15.50;;;;;22.44;42.67;100969.56;5106445;27;45713;-72
2023/02/22 07:52:45;;;;;;;;;21.75;19.75;;;;;22.99;42.46;100970.31;5133069;27;45696;-72
2023/02/22 07:55:12;;;;;;;;;17.00;14.75;;;;;23.42;41.82;100963.13;5108594;27;46493;-73
2023/02/22 07:57:37;;;;;;;;;15.75;15.00;;;;;23.81;41.41;100956.34;5110818;27;45444;-73
2023/02/22 08:00:03;;;;;;;;;19.25;19.25;;;;;24.21;40.94;100969.31;5101049;27;45566;-74
2023/02/22 08:02:29;;;;;;;;;15.00;15.00;;;;;24.58;41.06;100970.69;5112128;27;45596;-74
2023/02/22 08:04:54;;;;;;;;;17.75;16.25;;;;;24.84;40.19;100980.53;5110129;27;48345;-76
2023/02/22 08:07:19;;;;;;;;;16.25;14.50;;;;;25.07;39.80;100987.13;5109095;27;46357;-73
2023/02/22 08:09:45;;;;;;;;;16.75;16.25;;;;;25.27;39.56;100993.00;5100813;27;45552;-72
2023/02/22 08:12:10;;;;;;;;;17.75;15.50;;;;;25.43;39.23;100997.56;5109792;27;45678;-74
2023/02/22 08:14:35;;;;;;;;;16.75;16.75;;;;;25.60;39.07;100989.34;5109977;27;46369;-76
2023/02/22 08:17:01;;;;;;;;;15.75;15.75;;;;;25.70;38.82;100986.44;5107653;27;45595;-73
2023/02/22 08:19:26;;;;;;;;;19.25;18.50;;;;;25.82;38.78;100989.59;5103670;27;45450;-72
2023/02/22 08:21:51;;;;;;;;;12.75;11.50;;;;;25.93;38.25;100997.34;5110728;27;45612;-72
2023/02/22 08:24:16;;;;;;;;;15.00;13.25;;;;;25.97;38.34;101008.72;5106016;27;45428;-73
2023/02/22 08:26:46;;;;;;;;;16.50;16.25;;;;;26.05;37.80;101009.53;5105805;27;51826;-72
2023/02/22 08:29:13;;;;;;;;;15.50;15.50;;;;;26.07;38.10;100994.91;5102980;27;45434;-74
2023/02/22 08:31:39;;;;;;;;;15.50;15.00;;;;;26.13;37.63;100986.88;5107138;27;45449;-74
2023/02/22 08:34:04;;;;;;;;;16.75;16.25;;;;;26.18;37.96;100987.16;5109859;27;46004;-74
2023/02/22 08:36:31;;;;;;;;;17.00;17.00;;;;;26.25;37.65;101000.06;5100086;27;45535;-74
2023/02/22 08:38:57;;;;;;;;;14.33;14.33;;;;;26.34;37.45;101003.56;5103293;27;45504;-74
2023/02/22 08:41:22;;;;;;;;;17.33;15.67;;;;;26.43;37.81;101007.94;5107375;27;45488;-74
2023/02/22 08:43:47;;;;;;;;;17.67;16.33;;;;;26.54;37.18;101002.06;5125346;27;48092;-74
2023/02/22 08:46:15;;;;;;;;;15.00;15.00;;;;;26.68;37.38;100994.09;5098496;27;45427;-73
2023/02/22 08:48:49;;;;;;;;;18.00;15.00;;;;;26.81;37.45;100996.22;5095950;27;45293;-74
2023/02/22 08:51:14;;;;;;;;;14.00;14.00;;;;;26.92;37.39;101003.94;5095698;27;45475;-75
2023/02/22 08:53:40;;;;;;;;;17.00;14.33;;;;;27.04;36.89;101012.53;5096189;27;46291;-74
2023/02/22 08:56:05;;;;;;;;;21.67;16.67;;;;;27.15;37.14;101007.66;5097096;27;45519;-73
2023/02/22 08:58:31;;;;;;;;;14.33;14.33;;;;;27.28;36.35;101016.03;5095347;27;45470;-72
2023/02/22 09:00:56;;;;;;;;;13.33;13.33;;;;;27.41;37.06;101014.50;5096085;27;45351;-75
2023/02/22 09:03:22;;;;;;;;;12.33;12.33;;;;;27.53;36.30;101018.47;5093425;27;45879;-74
2023/02/22 09:05:47;;;;;;;;;15.67;14.00;;;;;27.65;36.84;101018.84;5096593;27;45449;-74
2023/02/22 09:08:15;;;;;;;;;15.33;13.67;;;;;27.79;36.43;101024.47;5092143;27;45517;-75
2023/02/22 09:10:40;;;;;;;;;18.00;12.33;;;;;27.85;36.36;101013.66;5092632;27;45692;-74
2023/02/22 09:13:06;;;;;;;;;14.00;14.00;;;;;27.92;35.85;101007.44;5094526;27;46043;-73
2023/02/22 09:15:34;;;;;;;;;12.00;12.00;;;;;27.95;35.83;101005.16;5095923;27;45468;-74
2023/02/22 09:18:00;;;;;;;;;13.00;12.00;;;;;28.02;36.23;101014.28;5093249;27;45526;-74
2023/02/22 09:20:27;;;;;;;;;13.67;13.67;;;;;28.08;35.50;101003.63;5096321;27;45360;-75
2023/02/22 09:22:54;;;;;;;;;14.67;12.00;;;;;28.11;35.76;101011.41;5097104;27;45530;-74
2023/02/22 09:25:19;;;;;;;;;13.33;12.67;;;;;28.13;35.41;101007.44;5098882;27;45614;-75
2023/02/22 09:27:50;;;;;;;;;12.67;11.67;;;;;28.15;35.29;101008.09;5096650;27;45973;-75
2023/02/22 09:30:41;;;;;;;;;12.00;12.00;;;;;28.21;35.26;101022.00;5096980;27;45611;-74
2023/02/22 09:33:10;;;;;;;;;11.00;11.00;;;;;28.21;35.14;101025.59;5086394;27;45406;-72
2023/02/22 09:35:40;;;;;;;;;11.00;10.33;;;;;28.24;35.31;101024.38;5097355;27;45468;-75
2023/02/22 09:38:07;;;;;;;;;15.33;13.67;;;;;28.30;34.96;101025.47;5095002;27;45373;-74
2023/02/22 09:40:39;;;;;;;;;12.00;11.00;;;;;28.32;35.39;101013.34;5095596;27;45685;-75
2023/02/22 09:43:07;;;;;;;;;17.00;17.00;;;;;28.41;35.53;101020.34;5091250;27;45650;-74
2023/02/22 09:45:47;;;;;;;;;19.33;17.00;;;;;28.44;35.17;101026.47;5092295;27;45581;-72
2023/02/22 09:48:15;;;;;;;;;17.67;17.33;;;;;28.47;34.75;101016.00;5092675;27;45489;-76
2023/02/22 09:50:43;;;;;;;;;15.00;15.00;;;;;28.46;35.26;101013.47;5098932;27;46480;-78
2023/02/22 09:53:30;;;;;;;;;18.33;16.67;;;;;28.44;34.62;101015.56;5092375;27;47033;-74
2023/02/22 09:56:17;;;;;;;;;18.33;16.67;;;;;28.40;34.80;101020.53;5097187;27;45354;-76
2023/02/22 09:58:46;;;;;;;;;13.67;13.67;;;;;28.40;34.59;101018.66;5090732;27;45492;-74
2023/02/22 10:01:14;;;;;;;;;16.33;15.33;;;;;28.40;34.37;101017.81;5096906;27;45607;-73
2023/02/22 10:04:11;;;;;;;;;21.00;19.00;;;;;28.37;34.20;101019.06;5101648;27;45484;-74
2023/02/22 10:06:42;;;;;;;;;26.50;22.75;;;;;28.27;34.09;101024.00;5084988;27;45498;-74
2023/02/22 10:09:09;;;;;;;;;24.67;22.67;;;;;28.14;34.06;101020.06;5090650;27;45552;-73
2023/02/22 10:11:51;;;;;;;;;26.25;24.75;;;;;28.04;34.45;101022.28;5091482;27;45463;-73
2023/02/22 10:14:42;;;;;;;;;31.50;27.75;;;;;27.90;34.00;101017.69;5093465;27;45989;-73
2023/02/22 10:17:36;;;;;;;;;22.67;21.67;;;;;27.81;34.40;101031.44;5087150;27;45398;-75
2023/02/22 10:20:19;;;;;;;;;26.25;21.50;;;;;27.67;34.33;101024.13;5041661;28;45430;-75
2023/02/22 10:22:59;;;;;;;;;35.00;32.25;;;;;27.52;33.88;101022.22;5047554;28;45788;-76
2023/02/22 10:25:33;;;;;;;;;36.00;32.25;;;;;27.38;33.70;101023.06;5049138;28;46360;-75
2023/02/22 10:28:23;;;;;;;;;37.00;32.50;;;;;27.18;33.40;101026.34;5045874;28;45457;-75
2023/02/22 10:30:53;;;;;;;;;45.00;37.00;;;;;27.03;33.85;101021.75;5050410;28;45456;-75
2023/02/22 10:33:45;;;;;;;;;44.50;37.50;;;;;26.83;34.05;101027.69;5040621;28;45481;-75
2023/02/22 10:36:22;;;;;;;;;44.75;38.75;;;;;26.72;33.23;101025.38;5050040;28;45684;-75
2023/02/22 10:38:56;;;;;;;;;41.75;36.50;;;;;26.45;33.07;101030.38;5050412;28;45334;-75
2023/02/22 10:41:33;;;;;;;;;47.25;39.25;;;;;26.03;33.02;101032.47;5049019;28;45823;-74
2023/02/22 10:44:01;;;;;;;;;47.25;37.75;;;;;25.73;33.82;101022.25;5047829;28;45618;-74
2023/02/22 10:46:30;;;;;;;;;45.50;38.00;;;;;25.67;33.58;101025.69;5050183;28;46681;-74
2023/02/22 10:49:03;;;;;;;;;40.25;35.50;;;;;25.75;34.10;101032.97;5050444;28;45468;-75
2023/02/22 10:51:29;;;;;;;;;32.75;30.50;;;;;25.83;33.91;101027.47;5049536;28;45456;-75
2023/02/22 10:54:12;;;;;;;;;38.50;34.50;;;;;25.95;33.83;101032.53;5037653;28;46531;-75
2023/02/22 10:56:49;;;;;;;;;34.75;31.75;;;;;26.01;33.77;101016.34;5066417;27;45569;-75
2023/02/22 10:59:32;;;;;;;;;31.75;30.75;;;;;26.13;33.73;101024.94;5089997;27;45590;-72
2023/02/22 11:01:59;;;;;;;;;32.00;27.75;;;;;26.22;33.88;101017.56;5090849;27;45534;-73
2023/02/22 11:04:24;;;;;;;;;29.50;29.50;;;;;26.35;33.85;101024.34;5093934;27;45508;-74
2023/02/22 11:07:30;;;;;;;;;28.50;28.50;;;;;26.52;34.26;101017.72;5100806;27;46339;-73
2023/02/22 11:10:08;;;;;;;;;30.50;28.00;;;;;26.68;33.69;101024.91;5078763;27;45419;-73
2023/02/22 11:12:39;;;;;;;;;28.00;27.50;;;;;26.79;34.17;101022.78;5087456;27;45688;-72
2023/02/22 11:15:21;;;;;;;;;31.00;28.75;;;;;26.83;33.83;101019.50;5087271;27;45449;-71
2023/02/22 11:17:48;;;;;;;;;31.50;29.50;;;;;26.84;33.97;101017.63;5078197;27;46250;-72
2023/02/22 11:20:24;;;;;;;;;26.75;25.00;;;;;26.82;34.08;101011.53;5087066;27;45397;-71
2023/02/22 11:22:53;;;;;;;;;26.00;25.25;;;;;26.81;33.77;101016.13;5091547;27;45332;-72
2023/02/22 11:25:23;;;;;;;;;30.25;27.75;;;;;26.82;33.61;101014.25;5092449;27;45725;-72
2023/02/22 11:27:51;;;;;;;;;25.25;25.25;;;;;26.81;34.03;101007.13;5080301;27;45695;-71
2023/02/22 11:30:30;;;;;;;;;28.50;26.50;;;;;26.80;33.63;101011.69;5101898;27;45429;-72
2023/02/22 11:33:12;;;;;;;;;26.75;24.00;;;;;26.80;33.24;101013.56;5082473;27;45379;-71
2023/02/22 11:35:58;;;;;;;;;24.00;22.50;;;;;26.77;33.88;101003.88;5094335;27;45422;-72
2023/02/22 11:38:27;;;;;;;;;22.75;22.75;;;;;26.79;33.35;101010.00;5093873;27;46196;-72
2023/02/22 11:41:20;;;;;;;;;24.00;21.50;;;;;26.79;33.38;101018.19;5094210;27;45541;-71
2023/02/22 11:43:48;;;;;;;;;25.00;23.00;;;;;26.76;33.67;101006.81;5093019;27;45453;-72
2023/02/22 11:46:16;;;;;;;;;22.75;22.00;;;;;26.78;33.27;101005.59;5094178;27;45320;-72
2023/02/22 11:48:59;;;;;;;;;21.00;20.50;;;;;26.75;33.77;101002.38;5093511;27;45413;-72
2023/02/22 11:51:33;;;;;;;;;28.50;24.00;;;;;26.74;33.54;101004.28;5087362;27;45694;-72
2023/02/22 11:54:08;;;;;;;;;26.50;21.50;;;;;26.74;33.63;101001.56;5077834;27;45411;-72
2023/02/22 11:56:41;;;;;;;;;18.75;17.25;;;;;26.76;33.38;101004.94;5077596;27;45527;-72
2023/02/22 11:59:54;;;;;;;;;23.75;20.50;;;;;26.72;33.24;100990.00;5093722;27;48630;-72
2023/02/22 12:02:29;;;;;;;;;23.25;23.25;;;;;26.75;33.18;100996.94;5041162;28;45507;-72
2023/02/22 12:05:19;;;;;;;;;22.50;22.00;;;;;26.72;33.32;100997.31;5050528;28;45640;-72
2023/02/22 12:08:08;;;;;;;;;21.75;20.50;;;;;26.73;33.50;100980.78;5049580;28;45964;-72
2023/02/22 12:11:05;;;;;;;;;23.50;22.00;;;;;26.73;33.07;100988.13;5048895;28;46324;-72
2023/02/22 12:13:36;;;;;;;;;20.00;17.75;;;;;26.74;32.67;100981.63;5047038;28;45538;-72
2023/02/22 12:16:07;;;;;;;;;20.00;19.00;;;;;26.73;33.46;100978.06;5045518;28;45450;-72
2023/02/22 12:18:32;;;;;;;;;23.75;22.00;;;;;26.73;33.00;100980.78;5034320;28;45459;-72
2023/02/22 12:21:01;;;;;;;;;21.50;19.50;;;;;26.70;33.41;100975.72;5043944;28;46455;-72
2023/02/22 12:23:53;;;;;;;;;20.50;19.75;;;;;26.69;32.97;100974.88;5029754;28;45428;-72
2023/02/22 12:26:31;;;;;;;;;19.33;17.33;;;;;26.67;32.78;100968.78;5050679;28;45587;-72
2023/02/22 12:29:24;;;;;;;;;21.50;20.00;;;;;26.61;33.38;100952.34;5053288;28;45534;-72
2023/02/22 12:32:04;;;;;;;;;23.67;19.00;;;;;26.66;32.66;100967.09;5037318;27;48206;-72
2023/02/22 12:34:47;;;;;;;;;20.50;18.75;;;;;26.58;33.19;100956.28;5093683;27;45612;-72
2023/02/22 12:37:21;;;;;;;;;20.00;18.00;;;;;26.63;33.29;100964.72;5094989;27;45500;-72
2023/02/22 12:39:54;;;;;;;;;21.00;19.25;;;;;26.61;32.83;100958.63;5095003;27;45599;-75
2023/02/22 12:42:56;;;;;;;;;21.50;20.50;;;;;26.64;32.95;100960.13;5094809;27;45467;-73
2023/02/22 12:45:33;;;;;;;;;19.00;18.50;;;;;26.69;33.32;100960.44;5096729;27;45508;-73
2023/02/22 12:48:20;;;;;;;;;18.67;18.33;;;;;26.80;32.99;100961.84;5095405;27;45423;-73
2023/02/22 12:51:06;;;;;;;;;16.33;16.33;;;;;26.90;33.24;100957.00;5083669;27;45394;-73
2023/02/22 12:53:35;;;;;;;;;20.00;19.33;;;;;27.04;33.25;100955.31;5092283;27;46362;-72
2023/02/22 12:56:18;;;;;;;;;18.75;16.25;;;;;27.18;33.29;100966.41;5093125;27;46366;-74
2023/02/22 12:59:01;;;;;;;;;20.00;19.33;;;;;27.29;33.15;100963.22;5094044;27;45453;-70
2023/02/22 13:01:36;;;;;;;;;22.67;18.67;;;;;27.42;33.44;100969.88;5092129;27;45486;-71
2023/02/22 13:04:03;;;;;;;;;16.67;16.67;;;;;27.54;33.07;100964.78;5075222;27;47361;-71
2023/02/22 13:06:43;;;;;;;;;21.00;17.67;;;;;27.69;33.29;100979.28;5097447;27;45386;-70
2023/02/22 13:09:43;;;;;;;;;21.00;16.00;;;;;27.84;33.50;100962.84;5087324;27;45259;-70
2023/02/22 13:12:18;;;;;;;;;22.67;18.33;;;;;27.96;32.71;100960.47;5086868;27;45403;-72
2023/02/22 13:14:58;;;;;;;;;22.00;19.00;;;;;27.99;33.13;100967.41;5094639;27;45532;-71
2023/02/22 13:17:39;;;;;;;;;14.67;13.00;;;;;28.05;33.10;100961.22;5083730;27;45391;-72
2023/02/22 13:20:20;;;;;;;;;18.00;18.00;;;;;28.12;33.05;100956.66;5100789;27;45492;-72
2023/02/22 13:23:14;;;;;;;;;20.33;17.33;;;;;28.19;32.52;100964.06;5096901;27;45503;-72
2023/02/22 13:25:56;;;;;;;;;17.00;16.00;;;;;28.26;32.67;100959.53;5051611;28;45521;-72
2023/02/22 13:28:34;;;;;;;;;17.67;17.67;;;;;28.28;32.33;100955.56;5049943;28;45351;-73
2023/02/22 13:31:35;;;;;;;;;15.00;14.67;;;;;28.39;32.56;100953.34;5054032;28;45452;-71
2023/02/22 13:34:48;;;;;;;;;16.00;16.00;;;;;28.44;32.59;100950.88;5052007;28;45564;-71
2023/02/22 13:37:39;;;;;;;;;18.67;17.67;;;;;28.47;32.73;100955.94;5051358;28;45554;-70
2023/02/22 13:40:23;;;;;;;;;21.33;17.33;;;;;28.39;32.60;100940.56;5041598;28;47804;-70
2023/02/22 13:43:13;;;;;;;;;15.33;15.33;;;;;28.32;32.10;100944.28;5048638;28;45466;-70
2023/02/22 13:46:18;;;;;;;;;18.33;16.00;;;;;28.18;31.87;100944.13;5058902;28;45638;-71
2023/02/22 13:49:17;;;;;;;;;16.67;16.67;;;;;28.07;31.92;100939.19;5046680;28;46704;-73
2023/02/22 13:51:45;;;;;;;;;18.33;18.33;;;;;28.04;32.74;100936.84;5051299;28;45495;-74
2023/02/22 13:54:33;;;;;;;;;17.00;14.33;;;;;28.02;32.31;100926.97;5052952;28;45518;-73
2023/02/22 13:57:01;;;;;;;;;19.33;16.67;;;;;28.17;32.13;100931.53;5035219;28;45774;-73
2023/02/22 13:59:27;;;;;;;;;23.33;17.33;;;;;28.29;32.64;100934.59;5041667;28;47269;-73
2023/02/22 14:01:53;;;;;;;;;16.33;15.33;;;;;28.39;32.09;100936.97;5062473;27;45313;-71
2023/02/22 14:04:24;;;;;;;;;18.00;16.67;;;;;28.49;32.17;100933.91;5086112;27;45459;-71
2023/02/22 14:06:50;;;;;;;;;14.67;13.67;;;;;28.57;32.57;100927.47;5095293;27;45485;-71
2023/02/22 14:09:44;;;;;;;;;15.00;13.67;;;;;28.67;32.32;100934.28;5089384;27;45564;-72
2023/02/22 14:12:29;;;;;;;;;17.33;15.33;;;;;28.76;32.05;100939.56;5083239;27;45488;-72
2023/02/22 14:15:13;;;;;;;;;13.67;12.67;;;;;28.82;32.11;100938.78;5095777;27;45880;-73
2023/02/22 14:17:56;;;;;;;;;16.33;14.00;;;;;28.84;31.99;100930.38;5093899;27;45768;-72
2023/02/22 14:20:33;;;;;;;;;16.67;15.00;;;;;28.91;32.04;100940.34;5094373;27;46631;-72
2023/02/22 14:23:32;;;;;;;;;13.33;13.33;;;;;28.97;32.40;100946.06;5091712;27;45445;-71
2023/02/22 14:26:11;;;;;;;;;15.00;15.00;;;;;28.96;32.23;100933.41;5051142;28;45473;-75
2023/02/22 14:28:42;;;;;;;;;12.00;12.00;;;;;29.02;32.29;100952.56;5044498;28;45534;-75
2023/02/22 14:31:16;;;;;;;;;13.00;13.00;;;;;29.01;31.83;100950.91;5051166;28;45907;-75
2023/02/22 14:33:49;;;;;;;;;16.33;14.67;;;;;28.98;32.42;100951.28;5051126;28;45578;-75
2023/02/22 14:36:16;;;;;;;;;15.33;14.00;;;;;28.93;31.55;100940.97;5047240;28;45581;-75
2023/02/22 14:38:44;;;;;;;;;13.00;13.00;;;;;28.91;32.18;100943.09;5051314;28;45585;-75
2023/02/22 14:41:13;;;;;;;;;13.00;13.00;;;;;28.92;31.80;100944.75;5050329;28;46206;-75
2023/02/22 14:43:40;;;;;;;;;13.00;12.00;;;;;28.93;31.60;100946.44;5051401;28;45440;-76
2023/02/22 14:46:09;;;;;;;;;17.00;13.67;;;;;28.97;31.72;100951.50;5051081;28;45508;-72
2023/02/22 14:48:39;;;;;;;;;12.00;11.00;;;;;28.89;31.50;100941.59;5054642;28;45492;-73
2023/02/22 14:51:32;;;;;;;;;12.67;11.33;;;;;28.90;31.82;100957.75;5050350;28;45558;-72
2023/02/22 14:54:35;;;;;;;;;13.00;13.00;;;;;28.93;31.60;100951.91;5042175;28;45550;-72
2023/02/22 14:57:13;;;;;;;;;14.00;12.00;;;;;28.98;31.67;100943.09;5049454;28;46553;-72
2023/02/22 15:00:19;;;;;;;;;12.00;12.00;;;;;29.05;32.35;100954.06;5051277;28;45471;-72
2023/02/22 15:02:51;;;;;;;;;11.00;11.00;;;;;29.07;31.76;100943.78;5052402;28;46182;-73
2023/02/22 15:05:20;;;;;;;;;10.33;9.33;;;;;29.10;32.04;100931.63;5094839;27;46477;-73
2023/02/22 15:07:52;;;;;;;;;14.67;13.67;;;;;29.12;31.64;100924.91;5090097;27;45579;-74
2023/02/22 15:10:37;;;;;;;;;10.67;10.67;;;;;29.17;32.10;100927.88;5086913;27;45609;-75
2023/02/22 15:13:12;;;;;;;;;10.33;9.33;;;;;29.19;32.03;100922.22;5085689;27;47289;-74
2023/02/22 15:15:59;;;;;;;;;13.00;10.33;;;;;29.25;32.14;100920.53;5089550;27;45392;-74
2023/02/22 15:18:43;;;;;;;;;11.33;11.33;;;;;29.28;31.55;100921.00;5082319;27;45569;-74
2023/02/22 15:21:16;;;;;;;;;10.67;9.33;;;;;29.35;31.38;100926.50;5083188;27;45480;-74
2023/02/22 15:23:47;;;;;;;;;10.00;8.33;;;;;29.40;32.05;100928.59;5090199;27;45596;-73
2023/02/22 15:26:44;;;;;;;;;11.00;10.00;;;;;29.43;31.47;100929.03;5094040;27;45730;-73
2023/02/22 15:29:32;;;;;;;;;14.33;10.00;;;;;29.48;32.03;100931.16;5082594;27;45507;-72
2023/02/22 15:31:57;;;;;;;;;9.33;9.33;;;;;29.51;32.04;100933.50;5081299;27;45568;-74
2023/02/22 15:34:28;;;;;;;;;12.00;9.00;;;;;29.58;31.47;100934.38;5093205;27;46595;-73
2023/02/22 15:36:56;;;;;;;;;11.33;10.33;;;;;29.62;31.74;100945.75;5094302;27;45531;-74
2023/02/22 15:39:28;;;;;;;;;10.67;10.00;;;;;29.67;32.17;100936.94;5087170;27;45551;-74
2023/02/22 15:42:18;;;;;;;;;9.33;8.33;;;;;29.69;32.02;100941.16;5085842;27;46049;-72
2023/02/22 15:44:48;;;;;;;;;9.67;9.67;;;;;29.69;32.00;100934.81;5093801;27;46021;-72
2023/02/22 15:47:17;;;;;;;;;9.67;7.33;;;;;29.69;32.17;100938.41;5088673;27;45539;-73
2023/02/22 15:49:43;;;;;;;;;10.33;9.67;;;;;29.72;31.63;100942.63;5096262;27;45483;-75
2023/02/22 15:52:30;;;;;;;;;9.67;8.67;;;;;29.68;32.21;100928.50;5093044;27;45390;-75
2023/02/22 15:54:56;;;;;;;;;9.67;7.33;;;;;29.65;32.30;100930.81;5093948;27;45487;-75
2023/02/22 15:57:24;;;;;;;;;12.33;12.33;;;;;29.69;31.76;100927.47;5092226;27;45544;-73
2023/02/22 15:59:52;;;;;;;;;10.67;10.67;;;;;29.60;31.22;100928.72;5098681;27;45399;-72
2023/02/22 16:02:38;;;;;;;;;12.33;11.67;;;;;29.42;31.34;100929.25;5088710;27;45557;-73
2023/02/22 16:05:10;;;;;;;;;11.00;10.00;;;;;29.25;30.90;100939.66;5093217;27;46361;-72
2023/02/22 16:07:46;;;;;;;;;12.00;12.00;;;;;29.04;31.56;100938.72;5107123;27;45493;-72
2023/02/22 16:10:32;;;;;;;;;11.33;11.00;;;;;28.86;31.44;100940.06;5084072;27;45615;-72
2023/02/22 16:13:23;;;;;;;;;11.67;8.33;;;;;28.80;31.78;100941.72;5089488;27;45525;-73
2023/02/22 16:15:56;;;;;;;;;12.00;11.33;;;;;28.82;31.77;100938.78;5090940;27;45568;-72
2023/02/22 16:18:34;;;;;;;;;14.67;13.33;;;;;28.89;31.32;100930.66;5083823;27;45419;-73
2023/02/22 16:21:15;;;;;;;;;12.67;9.67;;;;;28.98;31.09;100936.81;5110305;27;45411;-71
2023/02/22 16:23:52;;;;;;;;;10.67;10.00;;;;;29.06;32.08;100932.00;5100453;27;45561;-71
2023/02/22 16:26:32;;;;;;;;;10.67;10.67;;;;;29.16;31.02;100931.66;5097609;27;46558;-71
2023/02/22 16:29:02;;;;;;;;;11.00;11.00;;;;;29.23;31.87;100928.97;5095676;27;45324;-70
2023/02/22 16:31:33;;;;;;;;;8.00;8.00;;;;;29.27;31.13;100926.66;5097387;27;45365;-72
2023/02/22 16:34:01;;;;;;;;;9.33;7.00;;;;;29.30;31.57;100931.72;5095020;27;45836;-72
2023/02/22 16:36:44;;;;;;;;;9.00;8.33;;;;;29.31;31.10;100928.75;5097363;27;45513;-72
2023/02/22 16:39:23;;;;;;;;;10.00;8.67;;;;;29.33;31.16;100925.84;5096746;27;45535;-72
2023/02/22 16:41:50;;;;;;;;;10.33;9.33;;;;;29.35;31.31;100931.09;5098517;27;45540;-69
2023/02/22 16:44:16;;;;;;;;;7.00;7.00;;;;;29.34;31.21;100932.97;5087196;27;45443;-69
2023/02/22 16:46:42;;;;;;;;;9.00;9.00;;;;;29.32;31.11;100935.09;5095691;27;45396;-80
2023/02/22 16:49:12;;;;;;;;;10.33;10.33;;;;;29.26;31.12;100933.19;5094736;27;45398;-77
2023/02/22 16:51:42;;;;;;;;;11.00;9.33;;;;;29.17;31.25;100941.53;5110964;27;45444;-75
2023/02/22 16:54:17;;;;;;;;;12.33;10.33;;;;;29.02;31.18;100943.56;5080986;27;45531;-74
2023/02/22 16:56:43;;;;;;;;;8.00;7.33;;;;;28.92;31.19;100938.44;5084822;27;45480;-73
2023/02/22 16:59:14;;;;;;;;;8.00;8.00;;;;;28.93;30.99;100940.13;5094126;27;45593;-73
2023/02/22 17:01:39;;;;;;;;;13.33;11.33;;;;;28.96;31.19;100939.72;5096310;27;45425;-72
2023/02/22 17:04:25;;;;;;;;;12.67;12.00;;;;;29.03;31.11;100928.84;5094688;27;45585;-71
2023/02/22 17:06:51;;;;;;;;;17.00;11.67;;;;;29.13;31.10;100942.13;5100076;27;45511;-71
2023/02/22 17:09:18;;;;;;;;;10.33;7.00;;;;;29.09;30.96;100932.66;5094575;27;45473;-71
2023/02/22 17:11:46;;;;;;;;;13.00;12.00;;;;;29.03;30.89;100934.31;5095655;27;45371;-72
2023/02/22 17:14:17;;;;;;;;;11.33;10.67;;;;;28.97;31.26;100941.41;5090611;27;45701;-71
2023/02/22 17:16:45;;;;;;;;;13.67;10.00;;;;;28.97;30.85;100944.16;5087874;27;47212;-72
2023/02/22 17:19:16;;;;;;;;;6.67;5.67;;;;;29.01;30.79;100939.16;5094988;27;45514;-71
2023/02/22 17:21:41;;;;;;;;;11.00;11.00;;;;;29.04;31.11;100939.56;5094646;27;45423;-71
2023/02/22 17:24:15;;;;;;;;;8.00;8.00;;;;;29.07;30.99;100938.34;5081992;27;45361;-72
2023/02/22 17:26:40;;;;;;;;;10.33;8.00;;;;;29.13;31.08;100945.72;5094363;27;46600;-70
2023/02/22 17:29:06;;;;;;;;;9.00;8.00;;;;;29.14;30.99;100941.09;5093774;27;45361;-70
2023/02/22 17:31:31;;;;;;;;;13.67;12.00;;;;;29.16;30.77;100947.19;5094869;27;45385;-70
2023/02/22 17:34:01;;;;;;;;;11.00;8.00;;;;;29.23;31.15;100948.09;5094130;27;45471;-71
2023/02/22 17:36:27;;;;;;;;;8.33;7.67;;;;;29.24;30.94;100952.50;5086702;27;45715;-72
2023/02/22 17:38:52;;;;;;;;;11.00;11.00;;;;;29.29;31.27;100951.88;5094565;27;45421;-72
2023/02/22 17:41:17;;;;;;;;;10.00;7.33;;;;;29.29;30.97;100947.28;5095966;27;45656;-71
2023/02/22 17:43:43;;;;;;;;;6.67;6.67;;;;;29.38;30.69;100950.66;5087785;27;47084;-71
2023/02/22 17:46:08;;;;;;;;;8.00;6.67;;;;;29.42;31.08;100957.41;5094307;27;46452;-70
2023/02/22 17:48:34;;;;;;;;;8.33;8.00;;;;;29.45;30.94;100957.03;5094756;27;45408;-70
2023/02/22 17:51:04;;;;;;;;;11.00;9.33;;;;;29.51;31.11;100966.31;5083050;27;45488;-71
2023/02/22 17:53:30;;;;;;;;;8.00;8.00;;;;;29.53;30.75;100972.44;5091254;27;45432;-71
2023/02/22 17:55:56;;;;;;;;;7.00;7.00;;;;;29.58;31.38;100966.34;5084359;27;48390;-71
2023/02/22 17:58:24;;;;;;;;;8.67;8.00;;;;;29.58;31.01;100963.59;5107110;27;45419;-70
2023/02/22 18:00:50;;;;;;;;;8.67;7.00;;;;;29.59;30.58;100968.88;5092377;27;45695;-71
2023/02/22 18:03:23;;;;;;;;;10.00;7.67;;;;;29.59;31.00;100973.53;5090448;27;45854;-71
2023/02/22 18:05:51;;;;;;;;;9.33;9.33;;;;;29.57;31.03;100961.94;5085106;27;45552;-71
2023/02/22 18:08:17;;;;;;;;;7.00;7.00;;;;;29.57;31.07;100970.13;5087412;27;45565;-70
2023/02/22 18:10:43;;;;;;;;;6.00;5.00;;;;;29.55;30.58;100966.75;5078469;27;45405;-70
2023/02/22 18:13:12;;;;;;;;;7.67;6.33;;;;;29.55;30.88;100973.06;5092434;27;45414;-70
2023/02/22 18:15:39;;;;;;;;;9.33;8.00;;;;;29.54;30.85;100976.00;5094443;27;46488;-70
2023/02/22 18:18:04;;;;;;;;;6.00;6.00;;;;;29.45;30.92;100965.22;5080462;27;45507;-72
2023/02/22 18:20:36;;;;;;;;;8.33;8.33;;;;;29.48;31.49;100979.53;5093583;27;45511;-71
2023/02/22 18:23:08;;;;;;;;;7.67;6.33;;;;;29.48;31.32;100983.09;5086770;27;45667;-71
2023/02/22 18:25:35;;;;;;;;;8.00;7.00;;;;;29.45;30.50;100978.03;5088054;27;45596;-71
2023/02/22 18:28:05;;;;;;;;;6.67;6.67;;;;;29.43;30.92;100975.50;5092302;27;45574;-72
2023/02/22 18:30:32;;;;;;;;;9.00;7.00;;;;;29.37;30.78;100968.13;5090240;27;45614;-73
